sensor_id;sensor_type;location;lat;lon;timestamp;P1;durP1;ratioP1;P2;durP2;ratioP2
14619;SDS011;32125;48.518;9.050;2022-12-07T00:01:46;6.87;;;6.17;;
14619;SDS011;32125;48.518;9.050;2022-12-07T00:04:13;7.40;;;5.97;;
14619;SDS011;32125;48.518;9.050;2022-12-07T00:06:41;7.90;;;5.80;;
14619;SDS011;32125;48.518;9.050;2022-12-07T00:09:15;7.20;;;5.93;;
14619;SDS011;32125;48.518;9.050;2022-12-07T00:11:41;7.10;;;5.80;;
14619;SDS011;32125;48.518;9.050;2022-12-07T00:14:09;7.17;;;6.33;;
14619;SDS011;32125;48.518;9.050;2022-12-07T00:16:40;8.20;;;5.87;;
14619;SDS011;32125;48.518;9.050;2022-12-07T00:19:08;7.90;;;6.40;;
14619;SDS011;32125;48.518;9.050;2022-12-07T00:21:38;6.83;;;5.80;;
14619;SDS011;32125;48.518;9.050;2022-12-07T00:24:05;7.20;;;6.10;;
14619;SDS011;32125;48.518;9.050;2022-12-07T00:26:36;7.47;;;6.30;;
14619;SDS011;32125;48.518;9.050;2022-12-07T00:29:04;8.03;;;6.60;;
14619;SDS011;32125;48.518;9.050;2022-12-07T00:31:51;8.50;;;6.67;;
14619;SDS011;32125;48.518;9.050;2022-12-07T00:34:19;8.23;;;7.00;;
14619;SDS011;32125;48.518;9.050;2022-12-07T00:36:48;7.10;;;5.83;;
14619;SDS011;32125;48.518;9.050;2022-12-07T00:39:14;7.40;;;6.17;;
14619;SDS011;32125;48.518;9.050;2022-12-07T00:41:40;6.87;;;6.17;;
14619;SDS011;32125;48.518;9.050;2022-12-07T00:44:06;6.93;;;6.20;;
14619;SDS011;32125;48.518;9.050;2022-12-07T00:46:32;6.67;;;5.97;;
14619;SDS011;32125;48.518;9.050;2022-12-07T00:48:58;8.27;;;6.60;;
14619;SDS011;32125;48.518;9.050;2022-12-07T00:51:24;13.63;;;6.60;;
14619;SDS011;32125;48.518;9.050;2022-12-07T00:53:50;8.10;;;6.60;;
14619;SDS011;32125;48.518;9.050;2022-12-07T00:56:22;9.57;;;7.03;;
14619;SDS011;32125;48.518;9.050;2022-12-07T00:58:53;8.30;;;6.90;;
14619;SDS011;32125;48.518;9.050;2022-12-07T01:01:26;7.67;;;6.50;;
14619;SDS011;32125;48.518;9.050;2022-12-07T01:03:53;8.93;;;6.50;;
14619;SDS011;32125;48.518;9.050;2022-12-07T01:06:20;7.37;;;6.37;;
14619;SDS011;32125;48.518;9.050;2022-12-07T01:08:48;7.33;;;6.20;;
14619;SDS011;32125;48.518;9.050;2022-12-07T01:11:15;12.53;;;6.97;;
14619;SDS011;32125;48.518;9.050;2022-12-07T01:13:43;7.70;;;6.67;;
14619;SDS011;32125;48.518;9.050;2022-12-07T01:16:10;8.10;;;6.40;;
14619;SDS011;32125;48.518;9.050;2022-12-07T01:18:38;7.70;;;6.60;;
14619;SDS011;32125;48.518;9.050;2022-12-07T01:23:34;8.57;;;7.00;;
14619;SDS011;32125;48.518;9.050;2022-12-07T01:26:01;8.60;;;6.73;;
14619;SDS011;32125;48.518;9.050;2022-12-07T01:28:32;8.40;;;7.03;;
14619;SDS011;32125;48.518;9.050;2022-12-07T01:33:30;8.07;;;6.80;;
14619;SDS011;32125;48.518;9.050;2022-12-07T01:36:05;7.10;;;6.27;;
14619;SDS011;32125;48.518;9.050;2022-12-07T01:38:31;9.57;;;6.83;;
14619;SDS011;32125;48.518;9.050;2022-12-07T01:40:58;11.10;;;6.93;;
14619;SDS011;32125;48.518;9.050;2022-12-07T01:43:26;10.03;;;7.30;;
14619;SDS011;32125;48.518;9.050;2022-12-07T01:45:53;8.70;;;6.40;;
14619;SDS011;32125;48.518;9.050;2022-12-07T01:48:21;7.67;;;6.57;;
14619;SDS011;32125;48.518;9.050;2022-12-07T01:50:48;7.17;;;6.43;;
14619;SDS011;32125;48.518;9.050;2022-12-07T01:53:19;8.40;;;6.60;;
14619;SDS011;32125;48.518;9.050;2022-12-07T01:55:50;8.40;;;6.40;;
14619;SDS011;32125;48.518;9.050;2022-12-07T01:58:23;8.10;;;6.40;;
14619;SDS011;32125;48.518;9.050;2022-12-07T02:00:51;7.63;;;6.20;;
14619;SDS011;32125;48.518;9.050;2022-12-07T02:03:24;8.13;;;5.97;;
14619;SDS011;32125;48.518;9.050;2022-12-07T02:05:55;6.93;;;6.23;;
14619;SDS011;32125;48.518;9.050;2022-12-07T02:08:21;7.57;;;6.57;;
14619;SDS011;32125;48.518;9.050;2022-12-07T02:10:47;8.00;;;6.47;;
14619;SDS011;32125;48.518;9.050;2022-12-07T02:13:15;7.87;;;6.80;;
14619;SDS011;32125;48.518;9.050;2022-12-07T02:16:00;8.93;;;6.90;;
14619;SDS011;32125;48.518;9.050;2022-12-07T02:21:12;8.67;;;6.63;;
14619;SDS011;32125;48.518;9.050;2022-12-07T02:23:41;9.60;;;7.37;;
14619;SDS011;32125;48.518;9.050;2022-12-07T02:29:12;8.40;;;6.70;;
14619;SDS011;32125;48.518;9.050;2022-12-07T02:31:43;9.43;;;6.60;;
14619;SDS011;32125;48.518;9.050;2022-12-07T02:34:57;8.93;;;6.53;;
14619;SDS011;32125;48.518;9.050;2022-12-07T02:37:05;8.47;;;6.90;;
14619;SDS011;32125;48.518;9.050;2022-12-07T02:39:59;8.67;;;6.30;;
14619;SDS011;32125;48.518;9.050;2022-12-07T02:43:16;8.07;;;6.77;;
14619;SDS011;32125;48.518;9.050;2022-12-07T02:45:49;9.03;;;6.97;;
14619;SDS011;32125;48.518;9.050;2022-12-07T02:48:16;8.00;;;6.93;;
14619;SDS011;32125;48.518;9.050;2022-12-07T02:50:49;10.03;;;7.07;;
14619;SDS011;32125;48.518;9.050;2022-12-07T03:03:31;9.07;;;7.57;;
14619;SDS011;32125;48.518;9.050;2022-12-07T03:06:09;8.73;;;7.20;;
14619;SDS011;32125;48.518;9.050;2022-12-07T03:09:03;8.50;;;6.60;;
14619;SDS011;32125;48.518;9.050;2022-12-07T03:11:46;9.70;;;6.50;;
14619;SDS011;32125;48.518;9.050;2022-12-07T03:14:19;8.20;;;6.07;;
14619;SDS011;32125;48.518;9.050;2022-12-07T03:17:00;7.93;;;6.30;;
14619;SDS011;32125;48.518;9.050;2022-12-07T03:19:33;7.20;;;6.10;;
14619;SDS011;32125;48.518;9.050;2022-12-07T03:22:00;9.00;;;6.87;;
14619;SDS011;32125;48.518;9.050;2022-12-07T03:24:35;7.33;;;5.47;;
14619;SDS011;32125;48.518;9.050;2022-12-07T03:27:05;6.50;;;5.27;;
14619;SDS011;32125;48.518;9.050;2022-12-07T03:29:35;5.30;;;4.60;;
14619;SDS011;32125;48.518;9.050;2022-12-07T03:32:07;6.77;;;5.10;;
14619;SDS011;32125;48.518;9.050;2022-12-07T03:34:41;7.47;;;5.57;;
14619;SDS011;32125;48.518;9.050;2022-12-07T03:37:26;6.80;;;5.23;;
14619;SDS011;32125;48.518;9.050;2022-12-07T03:40:02;6.77;;;5.87;;
14619;SDS011;32125;48.518;9.050;2022-12-07T03:42:58;6.40;;;5.40;;
14619;SDS011;32125;48.518;9.050;2022-12-07T03:45:29;8.30;;;6.13;;
14619;SDS011;32125;48.518;9.050;2022-12-07T03:50:50;7.80;;;6.20;;
14619;SDS011;32125;48.518;9.050;2022-12-07T03:53:29;7.33;;;6.30;;
14619;SDS011;32125;48.518;9.050;2022-12-07T03:56:06;7.33;;;5.90;;
14619;SDS011;32125;48.518;9.050;2022-12-07T03:58:34;7.77;;;6.10;;
14619;SDS011;32125;48.518;9.050;2022-12-07T04:01:00;8.20;;;6.53;;
14619;SDS011;32125;48.518;9.050;2022-12-07T04:03:29;7.00;;;5.73;;
14619;SDS011;32125;48.518;9.050;2022-12-07T04:05:55;7.53;;;6.20;;
14619;SDS011;32125;48.518;9.050;2022-12-07T04:08:21;7.33;;;6.30;;
14619;SDS011;32125;48.518;9.050;2022-12-07T04:10:47;8.57;;;6.73;;
14619;SDS011;32125;48.518;9.050;2022-12-07T04:13:13;9.03;;;6.63;;
14619;SDS011;32125;48.518;9.050;2022-12-07T04:15:39;8.93;;;6.40;;
14619;SDS011;32125;48.518;9.050;2022-12-07T04:18:07;9.90;;;6.60;;
14619;SDS011;32125;48.518;9.050;2022-12-07T04:20:33;8.73;;;6.60;;
14619;SDS011;32125;48.518;9.050;2022-12-07T04:22:59;8.70;;;7.00;;
14619;SDS011;32125;48.518;9.050;2022-12-07T04:25:27;9.20;;;6.50;;
14619;SDS011;32125;48.518;9.050;2022-12-07T05:16:08;11.43;;;7.87;;
14619;SDS011;32125;48.518;9.050;2022-12-07T05:18:34;11.20;;;7.40;;
14619;SDS011;32125;48.518;9.050;2022-12-07T05:21:02;10.87;;;7.97;;
14619;SDS011;32125;48.518;9.050;2022-12-07T05:23:28;11.53;;;7.90;;
14619;SDS011;32125;48.518;9.050;2022-12-07T05:25:57;10.70;;;8.00;;
14619;SDS011;32125;48.518;9.050;2022-12-07T05:28:23;11.57;;;8.40;;
14619;SDS011;32125;48.518;9.050;2022-12-07T05:30:50;13.00;;;7.90;;
14619;SDS011;32125;48.518;9.050;2022-12-07T05:33:15;11.73;;;8.17;;
14619;SDS011;32125;48.518;9.050;2022-12-07T05:35:44;11.93;;;8.50;;
14619;SDS011;32125;48.518;9.050;2022-12-07T05:38:10;12.17;;;8.10;;
14619;SDS011;32125;48.518;9.050;2022-12-07T05:40:36;13.87;;;8.83;;
14619;SDS011;32125;48.518;9.050;2022-12-07T05:43:02;13.83;;;9.30;;
14619;SDS011;32125;48.518;9.050;2022-12-07T05:45:30;13.17;;;9.13;;
14619;SDS011;32125;48.518;9.050;2022-12-07T05:47:56;13.77;;;9.43;;
14619;SDS011;32125;48.518;9.050;2022-12-07T05:50:22;14.27;;;9.60;;
14619;SDS011;32125;48.518;9.050;2022-12-07T05:52:47;14.73;;;10.13;;
14619;SDS011;32125;48.518;9.050;2022-12-07T05:55:13;15.37;;;10.00;;
14619;SDS011;32125;48.518;9.050;2022-12-07T05:57:39;13.87;;;9.03;;
14619;SDS011;32125;48.518;9.050;2022-12-07T06:00:25;15.33;;;9.77;;
14619;SDS011;32125;48.518;9.050;2022-12-07T06:02:51;14.87;;;9.60;;
14619;SDS011;32125;48.518;9.050;2022-12-07T06:05:17;16.03;;;9.83;;
14619;SDS011;32125;48.518;9.050;2022-12-07T06:07:43;16.40;;;10.23;;
14619;SDS011;32125;48.518;9.050;2022-12-07T06:10:12;14.47;;;9.93;;
14619;SDS011;32125;48.518;9.050;2022-12-07T06:12:38;17.03;;;9.47;;
14619;SDS011;32125;48.518;9.050;2022-12-07T06:15:07;16.27;;;9.77;;
14619;SDS011;32125;48.518;9.050;2022-12-07T06:17:33;15.30;;;9.90;;
14619;SDS011;32125;48.518;9.050;2022-12-07T06:20:07;13.60;;;9.10;;
14619;SDS011;32125;48.518;9.050;2022-12-07T06:22:33;14.60;;;9.87;;
14619;SDS011;32125;48.518;9.050;2022-12-07T06:24:59;15.13;;;9.53;;
14619;SDS011;32125;48.518;9.050;2022-12-07T06:27:26;17.13;;;10.10;;
14619;SDS011;32125;48.518;9.050;2022-12-07T06:29:52;15.67;;;9.10;;
14619;SDS011;32125;48.518;9.050;2022-12-07T06:32:21;16.33;;;9.73;;
14619;SDS011;32125;48.518;9.050;2022-12-07T06:34:49;18.40;;;10.57;;
14619;SDS011;32125;48.518;9.050;2022-12-07T06:37:17;21.77;;;12.10;;
14619;SDS011;32125;48.518;9.050;2022-12-07T06:39:44;20.37;;;12.37;;
14619;SDS011;32125;48.518;9.050;2022-12-07T06:42:10;22.17;;;13.70;;
14619;SDS011;32125;48.518;9.050;2022-12-07T06:44:45;21.33;;;13.27;;
14619;SDS011;32125;48.518;9.050;2022-12-07T06:50:27;15.67;;;10.57;;
14619;SDS011;32125;48.518;9.050;2022-12-07T06:53:00;19.73;;;12.07;;
14619;SDS011;32125;48.518;9.050;2022-12-07T06:55:26;20.90;;;12.37;;
14619;SDS011;32125;48.518;9.050;2022-12-07T06:57:53;21.90;;;12.87;;
14619;SDS011;32125;48.518;9.050;2022-12-07T07:00:19;19.90;;;13.20;;
14619;SDS011;32125;48.518;9.050;2022-12-07T07:03:05;19.37;;;12.83;;
14619;SDS011;32125;48.518;9.050;2022-12-07T07:05:36;23.53;;;14.20;;
14619;SDS011;32125;48.518;9.050;2022-12-07T07:08:10;21.30;;;13.60;;
14619;SDS011;32125;48.518;9.050;2022-12-07T07:10:38;26.47;;;14.73;;
14619;SDS011;32125;48.518;9.050;2022-12-07T07:13:11;21.50;;;13.87;;
14619;SDS011;32125;48.518;9.050;2022-12-07T07:15:58;21.90;;;13.53;;
14619;SDS011;32125;48.518;9.050;2022-12-07T07:18:26;18.77;;;11.90;;
14619;SDS011;32125;48.518;9.050;2022-12-07T07:21:00;17.13;;;11.40;;
14619;SDS011;32125;48.518;9.050;2022-12-07T07:23:26;18.90;;;11.80;;
14619;SDS011;32125;48.518;9.050;2022-12-07T07:25:55;19.00;;;11.93;;
14619;SDS011;32125;48.518;9.050;2022-12-07T07:28:23;17.80;;;11.87;;
14619;SDS011;32125;48.518;9.050;2022-12-07T07:30:50;19.00;;;11.97;;
14619;SDS011;32125;48.518;9.050;2022-12-07T07:33:16;19.13;;;11.97;;
14619;SDS011;32125;48.518;9.050;2022-12-07T07:35:49;18.43;;;12.03;;
14619;SDS011;32125;48.518;9.050;2022-12-07T07:38:23;19.13;;;12.73;;
14619;SDS011;32125;48.518;9.050;2022-12-07T07:40:49;17.93;;;11.50;;
14619;SDS011;32125;48.518;9.050;2022-12-07T07:43:22;16.97;;;10.77;;
14619;SDS011;32125;48.518;9.050;2022-12-07T07:45:51;15.90;;;10.80;;
14619;SDS011;32125;48.518;9.050;2022-12-07T07:48:45;15.50;;;10.70;;
14619;SDS011;32125;48.518;9.050;2022-12-07T07:51:11;14.33;;;10.03;;
14619;SDS011;32125;48.518;9.050;2022-12-07T07:54:00;13.27;;;8.67;;
14619;SDS011;32125;48.518;9.050;2022-12-07T07:56:26;13.13;;;8.70;;
14619;SDS011;32125;48.518;9.050;2022-12-07T07:58:55;13.07;;;8.50;;
14619;SDS011;32125;48.518;9.050;2022-12-07T08:01:23;12.30;;;8.67;;
14619;SDS011;32125;48.518;9.050;2022-12-07T08:03:52;11.50;;;8.23;;
14619;SDS011;32125;48.518;9.050;2022-12-07T08:06:18;11.83;;;8.67;;
14619;SDS011;32125;48.518;9.050;2022-12-07T08:08:44;11.17;;;8.27;;
14619;SDS011;32125;48.518;9.050;2022-12-07T08:11:10;10.90;;;7.87;;
14619;SDS011;32125;48.518;9.050;2022-12-07T08:13:36;12.47;;;8.40;;
14619;SDS011;32125;48.518;9.050;2022-12-07T08:16:06;10.13;;;7.43;;
14619;SDS011;32125;48.518;9.050;2022-12-07T08:18:37;9.13;;;7.20;;
14619;SDS011;32125;48.518;9.050;2022-12-07T08:21:04;10.27;;;7.40;;
14619;SDS011;32125;48.518;9.050;2022-12-07T08:23:31;9.67;;;7.97;;
14619;SDS011;32125;48.518;9.050;2022-12-07T08:26:00;10.03;;;7.83;;
14619;SDS011;32125;48.518;9.050;2022-12-07T08:28:28;12.47;;;9.23;;
14619;SDS011;32125;48.518;9.050;2022-12-07T08:31:04;12.37;;;8.87;;
14619;SDS011;32125;48.518;9.050;2022-12-07T08:33:30;10.03;;;8.10;;
14619;SDS011;32125;48.518;9.050;2022-12-07T08:36:07;10.90;;;7.97;;
14619;SDS011;32125;48.518;9.050;2022-12-07T08:38:37;10.30;;;8.07;;
14619;SDS011;32125;48.518;9.050;2022-12-07T08:41:03;11.53;;;8.20;;
14619;SDS011;32125;48.518;9.050;2022-12-07T08:43:32;12.17;;;9.27;;
14619;SDS011;32125;48.518;9.050;2022-12-07T08:46:32;11.73;;;8.63;;
14619;SDS011;32125;48.518;9.050;2022-12-07T08:49:09;13.60;;;9.17;;
14619;SDS011;32125;48.518;9.050;2022-12-07T08:51:37;13.33;;;8.97;;
14619;SDS011;32125;48.518;9.050;2022-12-07T08:54:10;12.73;;;8.87;;
14619;SDS011;32125;48.518;9.050;2022-12-07T08:56:38;10.77;;;8.80;;
14619;SDS011;32125;48.518;9.050;2022-12-07T08:59:04;11.37;;;8.70;;
14619;SDS011;32125;48.518;9.050;2022-12-07T09:01:31;10.60;;;8.53;;
14619;SDS011;32125;48.518;9.050;2022-12-07T09:04:00;10.57;;;8.43;;
14619;SDS011;32125;48.518;9.050;2022-12-07T09:06:26;10.90;;;8.43;;
14619;SDS011;32125;48.518;9.050;2022-12-07T09:08:53;11.43;;;9.20;;
14619;SDS011;32125;48.518;9.050;2022-12-07T09:11:28;13.63;;;9.43;;
14619;SDS011;32125;48.518;9.050;2022-12-07T09:13:56;10.60;;;8.53;;
14619;SDS011;32125;48.518;9.050;2022-12-07T09:16:26;12.10;;;9.50;;
14619;SDS011;32125;48.518;9.050;2022-12-07T09:18:54;13.67;;;8.53;;
14619;SDS011;32125;48.518;9.050;2022-12-07T09:21:21;13.07;;;8.90;;
14619;SDS011;32125;48.518;9.050;2022-12-07T09:23:47;12.50;;;9.37;;
14619;SDS011;32125;48.518;9.050;2022-12-07T09:26:13;12.37;;;9.53;;
14619;SDS011;32125;48.518;9.050;2022-12-07T09:28:39;12.63;;;9.47;;
14619;SDS011;32125;48.518;9.050;2022-12-07T09:31:07;13.20;;;9.10;;
14619;SDS011;32125;48.518;9.050;2022-12-07T09:33:33;12.83;;;9.07;;
14619;SDS011;32125;48.518;9.050;2022-12-07T09:35:59;11.03;;;9.00;;
14619;SDS011;32125;48.518;9.050;2022-12-07T09:38:25;13.23;;;9.00;;
14619;SDS011;32125;48.518;9.050;2022-12-07T09:40:55;12.13;;;8.80;;
14619;SDS011;32125;48.518;9.050;2022-12-07T09:43:24;11.97;;;8.90;;
14619;SDS011;32125;48.518;9.050;2022-12-07T09:45:51;11.43;;;8.33;;
14619;SDS011;32125;48.518;9.050;2022-12-07T09:48:36;12.80;;;8.80;;
14619;SDS011;32125;48.518;9.050;2022-12-07T09:51:22;10.37;;;8.30;;
14619;SDS011;32125;48.518;9.050;2022-12-07T09:53:48;9.83;;;7.60;;
14619;SDS011;32125;48.518;9.050;2022-12-07T09:56:15;9.60;;;7.20;;
14619;SDS011;32125;48.518;9.050;2022-12-07T09:58:42;8.10;;;6.37;;
14619;SDS011;32125;48.518;9.050;2022-12-07T10:03:35;8.83;;;6.77;;
14619;SDS011;32125;48.518;9.050;2022-12-07T10:06:11;9.47;;;6.90;;
14619;SDS011;32125;48.518;9.050;2022-12-07T10:08:40;7.33;;;6.30;;
14619;SDS011;32125;48.518;9.050;2022-12-07T10:11:08;9.50;;;7.30;;
14619;SDS011;32125;48.518;9.050;2022-12-07T10:13:39;10.33;;;7.57;;
14619;SDS011;32125;48.518;9.050;2022-12-07T10:16:31;8.63;;;7.17;;
14619;SDS011;32125;48.518;9.050;2022-12-07T10:19:27;10.07;;;6.83;;
14619;SDS011;32125;48.518;9.050;2022-12-07T10:22:15;9.40;;;6.30;;
14619;SDS011;32125;48.518;9.050;2022-12-07T10:24:41;8.70;;;6.70;;
14619;SDS011;32125;48.518;9.050;2022-12-07T10:27:30;7.47;;;5.83;;
14619;SDS011;32125;48.518;9.050;2022-12-07T10:29:54;8.27;;;6.07;;
14619;SDS011;32125;48.518;9.050;2022-12-07T10:34:46;8.00;;;6.03;;
14619;SDS011;32125;48.518;9.050;2022-12-07T10:39:45;7.77;;;6.00;;
14619;SDS011;32125;48.518;9.050;2022-12-07T10:45:06;8.80;;;6.20;;
14619;SDS011;32125;48.518;9.050;2022-12-07T10:53:10;7.03;;;5.27;;
14619;SDS011;32125;48.518;9.050;2022-12-07T11:00:52;7.03;;;5.83;;
14619;SDS011;32125;48.518;9.050;2022-12-07T11:03:48;6.67;;;5.63;;
14619;SDS011;32125;48.518;9.050;2022-12-07T11:14:23;6.07;;;5.23;;
14619;SDS011;32125;48.518;9.050;2022-12-07T11:17:03;6.70;;;5.27;;
14619;SDS011;32125;48.518;9.050;2022-12-07T11:24:58;7.37;;;6.17;;
14619;SDS011;32125;48.518;9.050;2022-12-07T11:28:15;8.33;;;5.90;;
14619;SDS011;32125;48.518;9.050;2022-12-07T11:30:48;7.00;;;6.03;;
14619;SDS011;32125;48.518;9.050;2022-12-07T11:33:35;8.43;;;5.90;;
14619;SDS011;32125;48.518;9.050;2022-12-07T11:36:14;8.90;;;5.40;;
14619;SDS011;32125;48.518;9.050;2022-12-07T11:39:02;9.17;;;5.87;;
14619;SDS011;32125;48.518;9.050;2022-12-07T11:41:35;6.47;;;5.27;;
14619;SDS011;32125;48.518;9.050;2022-12-07T11:44:08;7.93;;;5.70;;
14619;SDS011;32125;48.518;9.050;2022-12-07T11:52:15;8.27;;;6.57;;
14619;SDS011;32125;48.518;9.050;2022-12-07T11:54:43;7.77;;;6.50;;
14619;SDS011;32125;48.518;9.050;2022-12-07T11:57:13;6.37;;;5.53;;
14619;SDS011;32125;48.518;9.050;2022-12-07T12:00:01;7.27;;;5.93;;
14619;SDS011;32125;48.518;9.050;2022-12-07T12:02:39;10.43;;;6.20;;
14619;SDS011;32125;48.518;9.050;2022-12-07T12:05:22;9.03;;;5.77;;
14619;SDS011;32125;48.518;9.050;2022-12-07T12:07:56;8.50;;;6.30;;
14619;SDS011;32125;48.518;9.050;2022-12-07T12:16:48;7.17;;;5.53;;
14619;SDS011;32125;48.518;9.050;2022-12-07T12:19:22;6.50;;;5.63;;
14619;SDS011;32125;48.518;9.050;2022-12-07T12:21:58;7.23;;;5.57;;
14619;SDS011;32125;48.518;9.050;2022-12-07T12:24:28;7.07;;;5.40;;
14619;SDS011;32125;48.518;9.050;2022-12-07T12:27:05;6.93;;;5.60;;
14619;SDS011;32125;48.518;9.050;2022-12-07T12:29:41;8.03;;;5.73;;
14619;SDS011;32125;48.518;9.050;2022-12-07T12:32:17;8.23;;;6.53;;
14619;SDS011;32125;48.518;9.050;2022-12-07T12:40:43;8.00;;;5.70;;
14619;SDS011;32125;48.518;9.050;2022-12-07T12:43:39;10.10;;;6.07;;
14619;SDS011;32125;48.518;9.050;2022-12-07T12:48:44;6.40;;;5.70;;
14619;SDS011;32125;48.518;9.050;2022-12-07T12:54:03;10.77;;;5.33;;
14619;SDS011;32125;48.518;9.050;2022-12-07T13:04:59;8.10;;;5.80;;
14619;SDS011;32125;48.518;9.050;2022-12-07T13:15:45;9.53;;;5.90;;
14619;SDS011;32125;48.518;9.050;2022-12-07T13:20:55;7.73;;;5.53;;
14619;SDS011;32125;48.518;9.050;2022-12-07T13:23:25;11.17;;;5.87;;
14619;SDS011;32125;48.518;9.050;2022-12-07T13:28:36;8.23;;;5.80;;
14619;SDS011;32125;48.518;9.050;2022-12-07T13:37:04;7.80;;;5.80;;
14619;SDS011;32125;48.518;9.050;2022-12-07T13:40:03;7.77;;;5.60;;
14619;SDS011;32125;48.518;9.050;2022-12-07T13:42:43;7.83;;;6.20;;
14619;SDS011;32125;48.518;9.050;2022-12-07T13:48:08;8.57;;;6.27;;
14619;SDS011;32125;48.518;9.050;2022-12-07T13:50:51;9.23;;;6.30;;
14619;SDS011;32125;48.518;9.050;2022-12-07T13:53:21;10.97;;;7.23;;
14619;SDS011;32125;48.518;9.050;2022-12-07T13:55:47;8.10;;;6.33;;
14619;SDS011;32125;48.518;9.050;2022-12-07T13:58:14;10.97;;;6.53;;
14619;SDS011;32125;48.518;9.050;2022-12-07T14:00:40;8.37;;;6.70;;
14619;SDS011;32125;48.518;9.050;2022-12-07T14:05:40;9.10;;;7.10;;
14619;SDS011;32125;48.518;9.050;2022-12-07T14:15:55;9.80;;;6.53;;
14619;SDS011;32125;48.518;9.050;2022-12-07T14:24:02;8.37;;;6.30;;
14619;SDS011;32125;48.518;9.050;2022-12-07T14:26:46;12.97;;;6.90;;
14619;SDS011;32125;48.518;9.050;2022-12-07T14:29:21;10.30;;;6.30;;
14619;SDS011;32125;48.518;9.050;2022-12-07T14:31:59;8.17;;;6.20;;
14619;SDS011;32125;48.518;9.050;2022-12-07T14:34:41;9.63;;;6.63;;
14619;SDS011;32125;48.518;9.050;2022-12-07T14:37:08;6.83;;;5.80;;
14619;SDS011;32125;48.518;9.050;2022-12-07T14:39:35;8.80;;;6.10;;
14619;SDS011;32125;48.518;9.050;2022-12-07T14:42:01;8.07;;;6.43;;
14619;SDS011;32125;48.518;9.050;2022-12-07T14:44:27;8.97;;;6.40;;
14619;SDS011;32125;48.518;9.050;2022-12-07T14:46:53;8.03;;;5.83;;
14619;SDS011;32125;48.518;9.050;2022-12-07T14:49:19;8.33;;;6.10;;
14619;SDS011;32125;48.518;9.050;2022-12-07T14:51:46;7.07;;;5.63;;
14619;SDS011;32125;48.518;9.050;2022-12-07T14:54:15;10.73;;;6.37;;
14619;SDS011;32125;48.518;9.050;2022-12-07T14:56:45;8.47;;;6.10;;
14619;SDS011;32125;48.518;9.050;2022-12-07T14:59:14;8.03;;;5.80;;
14619;SDS011;32125;48.518;9.050;2022-12-07T15:01:40;11.17;;;5.67;;
14619;SDS011;32125;48.518;9.050;2022-12-07T15:04:06;8.20;;;5.57;;
14619;SDS011;32125;48.518;9.050;2022-12-07T15:06:33;7.17;;;5.80;;
14619;SDS011;32125;48.518;9.050;2022-12-07T15:08:59;7.73;;;5.73;;
14619;SDS011;32125;48.518;9.050;2022-12-07T15:11:25;9.97;;;5.70;;
14619;SDS011;32125;48.518;9.050;2022-12-07T15:13:51;9.70;;;5.23;;
14619;SDS011;32125;48.518;9.050;2022-12-07T15:16:32;5.70;;;4.80;;
14619;SDS011;32125;48.518;9.050;2022-12-07T15:19:04;8.23;;;4.97;;
14619;SDS011;32125;48.518;9.050;2022-12-07T15:21:32;7.23;;;4.80;;
14619;SDS011;32125;48.518;9.050;2022-12-07T15:23:58;7.10;;;5.10;;
14619;SDS011;32125;48.518;9.050;2022-12-07T15:26:24;7.60;;;5.20;;
14619;SDS011;32125;48.518;9.050;2022-12-07T15:28:53;8.57;;;4.93;;
14619;SDS011;32125;48.518;9.050;2022-12-07T15:31:19;7.23;;;5.20;;
14619;SDS011;32125;48.518;9.050;2022-12-07T15:33:45;7.60;;;5.10;;
14619;SDS011;32125;48.518;9.050;2022-12-07T15:36:17;7.80;;;5.20;;
14619;SDS011;32125;48.518;9.050;2022-12-07T15:38:47;6.30;;;4.80;;
14619;SDS011;32125;48.518;9.050;2022-12-07T15:41:13;5.40;;;4.50;;
14619;SDS011;32125;48.518;9.050;2022-12-07T15:43:39;9.00;;;4.90;;
14619;SDS011;32125;48.518;9.050;2022-12-07T15:46:28;6.23;;;4.77;;
14619;SDS011;32125;48.518;9.050;2022-12-07T15:48:55;5.93;;;4.43;;
14619;SDS011;32125;48.518;9.050;2022-12-07T15:51:21;5.50;;;4.50;;
14619;SDS011;32125;48.518;9.050;2022-12-07T15:53:47;5.70;;;4.23;;
14619;SDS011;32125;48.518;9.050;2022-12-07T15:56:13;5.30;;;4.30;;
14619;SDS011;32125;48.518;9.050;2022-12-07T15:58:39;5.00;;;4.23;;
14619;SDS011;32125;48.518;9.050;2022-12-07T16:01:11;5.73;;;3.90;;
14619;SDS011;32125;48.518;9.050;2022-12-07T16:03:38;5.20;;;3.90;;
14619;SDS011;32125;48.518;9.050;2022-12-07T16:06:04;4.30;;;3.80;;
14619;SDS011;32125;48.518;9.050;2022-12-07T16:08:30;7.43;;;3.63;;
14619;SDS011;32125;48.518;9.050;2022-12-07T16:10:56;4.17;;;3.50;;
14619;SDS011;32125;48.518;9.050;2022-12-07T16:13:22;3.93;;;3.53;;
14619;SDS011;32125;48.518;9.050;2022-12-07T16:15:48;5.07;;;3.90;;
14619;SDS011;32125;48.518;9.050;2022-12-07T16:18:14;4.90;;;3.93;;
14619;SDS011;32125;48.518;9.050;2022-12-07T16:20:40;7.30;;;4.00;;
14619;SDS011;32125;48.518;9.050;2022-12-07T16:23:06;5.03;;;3.90;;
14619;SDS011;32125;48.518;9.050;2022-12-07T16:25:33;5.43;;;4.17;;
14619;SDS011;32125;48.518;9.050;2022-12-07T16:27:59;5.80;;;3.93;;
14619;SDS011;32125;48.518;9.050;2022-12-07T16:30:27;5.40;;;4.13;;
14619;SDS011;32125;48.518;9.050;2022-12-07T16:32:53;6.30;;;4.60;;
14619;SDS011;32125;48.518;9.050;2022-12-07T16:35:19;5.23;;;4.37;;
14619;SDS011;32125;48.518;9.050;2022-12-07T16:37:45;6.27;;;4.30;;
14619;SDS011;32125;48.518;9.050;2022-12-07T16:40:11;4.40;;;4.00;;
14619;SDS011;32125;48.518;9.050;2022-12-07T16:42:42;5.97;;;4.70;;
14619;SDS011;32125;48.518;9.050;2022-12-07T16:45:08;6.27;;;4.60;;
14619;SDS011;32125;48.518;9.050;2022-12-07T16:47:36;5.60;;;4.67;;
14619;SDS011;32125;48.518;9.050;2022-12-07T16:50:03;5.30;;;4.60;;
14619;SDS011;32125;48.518;9.050;2022-12-07T16:52:29;5.23;;;4.43;;
14619;SDS011;32125;48.518;9.050;2022-12-07T16:54:55;6.50;;;5.00;;
14619;SDS011;32125;48.518;9.050;2022-12-07T16:57:21;6.93;;;5.67;;
14619;SDS011;32125;48.518;9.050;2022-12-07T16:59:47;8.03;;;6.30;;
14619;SDS011;32125;48.518;9.050;2022-12-07T17:02:13;8.20;;;5.60;;
14619;SDS011;32125;48.518;9.050;2022-12-07T17:04:39;6.03;;;5.37;;
14619;SDS011;32125;48.518;9.050;2022-12-07T17:07:07;6.57;;;5.00;;
14619;SDS011;32125;48.518;9.050;2022-12-07T17:09:33;7.77;;;5.30;;
14619;SDS011;32125;48.518;9.050;2022-12-07T17:12:00;6.77;;;5.67;;
14619;SDS011;32125;48.518;9.050;2022-12-07T17:14:26;8.23;;;6.10;;
14619;SDS011;32125;48.518;9.050;2022-12-07T17:17:10;9.73;;;6.10;;
14619;SDS011;32125;48.518;9.050;2022-12-07T17:19:36;9.63;;;6.23;;
14619;SDS011;32125;48.518;9.050;2022-12-07T17:22:02;7.87;;;6.63;;
14619;SDS011;32125;48.518;9.050;2022-12-07T17:24:31;8.97;;;6.33;;
14619;SDS011;32125;48.518;9.050;2022-12-07T17:26:57;8.27;;;6.20;;
14619;SDS011;32125;48.518;9.050;2022-12-07T17:29:23;8.23;;;6.23;;
14619;SDS011;32125;48.518;9.050;2022-12-07T17:31:49;8.27;;;6.23;;
14619;SDS011;32125;48.518;9.050;2022-12-07T17:34:15;8.17;;;5.90;;
14619;SDS011;32125;48.518;9.050;2022-12-07T17:36:42;10.93;;;6.10;;
14619;SDS011;32125;48.518;9.050;2022-12-07T17:39:10;11.97;;;8.20;;
14619;SDS011;32125;48.518;9.050;2022-12-07T17:41:38;12.87;;;7.90;;
14619;SDS011;32125;48.518;9.050;2022-12-07T17:44:22;10.93;;;7.13;;
14619;SDS011;32125;48.518;9.050;2022-12-07T17:46:49;11.33;;;7.03;;
14619;SDS011;32125;48.518;9.050;2022-12-07T17:49:19;9.70;;;6.47;;
14619;SDS011;32125;48.518;9.050;2022-12-07T17:51:45;7.57;;;6.00;;
14619;SDS011;32125;48.518;9.050;2022-12-07T17:54:32;8.70;;;6.23;;
14619;SDS011;32125;48.518;9.050;2022-12-07T17:56:59;9.13;;;6.17;;
14619;SDS011;32125;48.518;9.050;2022-12-07T17:59:25;9.30;;;6.50;;
14619;SDS011;32125;48.518;9.050;2022-12-07T18:01:51;7.87;;;6.30;;